Aviation Digital Data Service (ADDS)

Output produced by METARs form (1341 UTC 26 May 2018)
found at http://www.aviationweather.gov/adds/metars/
 
KCAE 261129Z 2612/2712 13004KT P6SM OVC008 
     FM261430 19005KT P6SM BKN020 
     FM261700 18010KT P6SM VCSH SCT035 
     TEMPO 2618/2622 SHRA 
     FM270800 VRB03KT 3SM BR OVC006
       
KCAK 261124Z 2612/2712 23006KT P6SM BKN150 
     FM261800 23007KT P6SM VCTS SCT035CB BKN080 
     FM262000 VRB03KT P6SM -SHRA VCTS SCT035CB OVC070 
     FM270000 21004KT P6SM OVC070 
     FM270800 00000KT P6SM SCT040
       
KCAR 261120Z 2612/2712 36005KT P6SM BKN100 
     FM261400 34012G22KT P6SM SCT060 
     FM262100 34010KT P6SM FEW080 
     FM270100 36004KT P6SM SKC
       
TAF AMD KCBM 251050Z 2510/2615 24005KT 9999 FEW150 QNH2997INS 
     BECMG 2511/2512 16006KT 9999 SCT050 BKN150 QNH2989INS 
     TEMPO 2518/2524 VRB15G25KT 8000 -TSRA BKN020CB 
     BECMG 2523/2524 16006KT 9999 FEW150 QNH2991INS 
     BECMG 2605/2606 16006KT 4800 DZ BR SCT001 BKN010 QNH2996INS 
     TEMPO 2606/2612 1600 SHRA BKN001 TX32/2518Z TN19/2511Z LAST NO AMDS AFT 2510 NEXT 2909
       
KCDC 261120Z 2612/2712 17006KT P6SM SKC 
     FM261600 22016G27KT P6SM SCT150 BKN200 
     FM270200 20010KT P6SM SCT100 BKN140
       
KCDR 261120Z 2612/2712 VRB05KT P6SM SKC 
     FM261800 15012G18KT P6SM SKC 
     FM270300 17015G25KT P6SM BKN150
       
KCDS 261120Z 2612/2712 11010KT P6SM FEW250
       
KCEC 261127Z 2612/2712 36006KT P6SM OVC020 
     FM261700 33012KT P6SM SCT020 BKN040 
     FM262200 33016G22KT P6SM SCT040 
     FM270300 33010KT P6SM FEW025
       
TAF KCEF 261000Z 2610/2716 03006KT 9999 FEW250 QNH2973INS 
     BECMG 2617/2618 24010G15KT 9999 FEW250 510072 QNH2970INS 
     BECMG 2623/2624 02006KT 9999 SCT160 QNH2971INS 
     BECMG 2705/2706 06006KT 9999 OVC025 QNH2982INS 
     BECMG 2710/2711 06006KT 6000 -RA OVC010 QNH2989INS 
     BECMG 2713/2714 06015G25KT 9999 NSW SCT010 OVC020 520004 QNH3001INS TX32/2617Z TN14/2708Z
       
KCGI 261303Z 2613/2712 23004KT P6SM BKN009 
     FM261430 23004KT P6SM VCTS FEW030CB SCT200 
     FM262300 VRB02KT P6SM FEW200
       
KCHA 261328Z 2613/2712 15003KT P6SM BKN014 BKN050 
     TEMPO 2613/2615 BKN008 
     FM261500 18004KT P6SM SCT025 BKN035 
     FM262100 18006KT P6SM VCTS BKN050CB 
     FM270200 VRB02KT P6SM SCT050 BKN100 
     FM270600 00000KT P6SM SCT100
       
KCHO 261140Z 2612/2712 20008KT P6SM SCT100 
     FM261700 20008G15KT P6SM VCTS BKN050CB 
     FM262200 20006KT P6SM BKN050 
     FM270600 VRB03KT 5SM BR SCT080 
     FM270900 VRB03KT 3SM BR SCT080
       
KCHS 261123Z 2612/2712 17003KT P6SM SCT025 
     FM261500 19009KT P6SM VCSH SCT025 BKN040 
     FM261800 18012G17KT P6SM SCT040 BKN250 
     FM270000 17004KT P6SM SCT020
       
KCID 261120Z 2612/2712 18006KT P6SM SCT050 
     FM261800 24005KT P6SM SKC
       
KCKB 261141Z 2612/2712 00000KT P6SM SCT035 BKN050 
     FM261900 21003KT P6SM -SHRA VCTS OVC035CB 
     FM262300 00000KT P6SM BKN070
       
KCKV 261141Z 2612/2712 17003KT P6SM VCSH SCT040 SCT120 BKN250 
     FM261700 21007KT P6SM VCTS BKN040CB BKN120 BKN250 
     FM270000 23004KT P6SM VCSH SCT040 BKN100 BKN250
       
KCLE 261124Z 2612/2718 23006KT P6SM BKN150 
     FM261800 25006KT P6SM VCTS SCT035CB OVC080 
     FM262000 31005KT P6SM BKN090 
     FM262300 VRB03KT P6SM SCT090 
     FM271700 35006KT P6SM FEW090
       
KCLL 261302Z 2613/2712 19006KT 6SM BR BKN009 
     FM261530 21008KT P6SM FEW025 SCT120 
     FM262100 16006KT P6SM FEW250
       
KCLM 261130Z 2612/2712 25006KT P6SM SCT025 BKN200 
     TEMPO 2612/2616 BKN025 BKN200 
     FM261900 29010KT P6SM SCT050 SCT200
       
KCLT 261133Z 2612/2718 19007KT 4SM -SHRA BR BKN004 OVC008 
     FM261400 20006KT P6SM VCSH SCT008 OVC015 
     FM261700 19007KT P6SM SCT015 BKN035 
     TEMPO 2619/2623 4SM TSRA OVC025CB 
     FM270400 19005KT P6SM VCSH BKN020 
     FM271600 18006KT P6SM SCT030 BKN100 
     PROB30 2716/2718 4SM -SHRA OVC025
       
KCMA 261309Z 2613/2712 VRB03KT P6SM SKC 
     FM261400 23006KT P6SM BKN025 
     FM261900 23012KT P6SM SCT030 
     FM270400 VRB03KT P6SM SKC
       
KCMH 261120Z 2612/2712 21005KT P6SM SKC 
     FM261700 21011KT P6SM VCTS BKN090CB 
     TEMPO 2619/2623 3SM -TSRA BKN025CB 
     FM262300 22007KT P6SM VCTS BKN035CB 
     FM270200 22005KT P6SM SCT050 BKN200
       
KCMI 261130Z 2612/2712 24007KT 4SM BR BKN006 
     FM261330 27005KT P6SM SCT050 SCT250 
     FM270200 22004KT P6SM FEW250 
     FM270900 VRB03KT 4SM BR FEW200
       
KCMX 261131Z 2612/2712 29012KT P6SM SCT100 
     FM261300 29003KT P6SM VCSH SCT110 
     FM261600 VRB05KT P6SM VCTS SCT100CB 
     FM261800 08008KT P6SM VCSH BKN100 
     FM270100 VRB03KT P6SM BKN050 
     FM270800 29006KT 6SM BR SCT045
       
KCNM 261121Z 2612/2712 VRB05KT P6SM SCT250 
     FM261800 18008G15KT P6SM FEW130 SCT250 
     FM270100 17008KT P6SM FEW130 SCT250
       
KCNU 261122Z 2612/2712 20005KT P6SM SKC 
     FM261700 17006KT P6SM SKC
       
KCNY 261139Z 2612/2712 15007KT P6SM SKC 
     FM261500 14012G20KT P6SM SKC 
     FM261800 18015G25KT P6SM SCT250 
     FM262100 20020G32KT P6SM SCT250 
     FM270400 22012KT P6SM BKN200
       
KCOD 261120Z 2612/2712 21006KT P6SM FEW100 
     FM261600 13008KT P6SM FEW060 SCT250 
     FM262100 34008KT P6SM SCT060 BKN120 
     FM270000 01012G18KT P6SM SCT080 BKN120 
     FM270900 35012G18KT P6SM VCSH SCT040 BKN060 AMD LTD TO CLD VIS AND WIND
       
KCOE 261132Z 2612/2712 18005KT P6SM BKN100 OVC150 
     FM261500 20008KT P6SM SCT060 BKN100 
     FM262100 23007G14KT P6SM FEW050 BKN070 
     FM270400 17005KT P6SM SKC
       
TAF AMD KCOF 252026Z 2520/2624 12012KT 9999 FEW018 SCT100 BKN200 QNH2996INS 
     BECMG 2603/2604 12009KT 9999 FEW020 BKN160 QNH2994INS 
     BECMG 2609/2610 12012G18KT 9999 VCTS SCT020 OVC150CB QNH2993INS 
     BECMG 2613/2614 11015G25KT 4800 SHRA SCT020 OVC060 QNH2990INS TX28/2520Z TN24/2610Z FCST BY USAF WX MET TECH LAST NO AMDS AFT 2520 NEXT 2810
       
KCON 261133Z 2612/2712 31007KT P6SM SCT080 BKN200 
     FM262100 36006KT P6SM -SHRA BKN025 
     FM270100 05005KT 4SM -SHRA BR OVC015 
     FM270600 05006KT P6SM BKN025
       
KCOS 261120Z 2612/2712 03006KT P6SM SKC 
     FM261600 16007KT P6SM SCT250 
     FM262000 18020G31KT P6SM FEW250 
     FM270200 14010KT P6SM BKN150 
     FM270800 09007KT P6SM FEW120
       
KCOU 261126Z 2612/2712 VRB03KT P6SM SCT250
       
KCPS 261126Z 2612/2712 VRB03KT P6SM SCT250
       
KCRE 261124Z 2612/2712 21009KT P6SM VCSH SCT012 SCT030 SCT250 
     TEMPO 2613/2617 SCT015 BKN025 
     FM261700 19013KT P6SM SCT040 SCT070 SCT200 
     FM270600 21004KT P6SM SCT015 SCT080 BKN150 
     TEMPO 2709/2712 4SM BR BKN010
       
KCRG 261120Z 2612/2712 18003KT P6SM SCT030 BKN250 
     FM261400 15007KT P6SM VCSH SCT020 BKN250 
     FM261700 12012KT P6SM SCT035 BKN250 
     FM270000 13008KT P6SM VCSH SCT040 BKN080 
     FM270700 13005KT 5SM -RA BKN040 OVC080
       
KCRP 261129Z 2612/2712 VRB04KT 6SM MIFG FEW012 
     TEMPO 2612/2613 00000KT 4SM BR BKN012 
     FM261315 19007KT P6SM SCT025 
     FM261900 13011KT P6SM FEW040 
     FM270200 16006KT P6SM FEW100 
     FM271000 VRB03KT 3SM BR SCT012
       
KCRQ 261323Z 2613/2712 00000KT P6SM BKN016 OVC040 
     FM261700 27004KT P6SM SCT018 BKN040 
     FM261900 28010KT P6SM SCT025 
     FM270100 VRB05KT P6SM SCT015 
     FM270300 VRB03KT P6SM BKN015
       
KCRW 261142Z 2612/2712 00000KT P6SM SCT100 
     FM261300 22003KT P6SM BKN100 
     FM261800 23005KT 6SM -SHRA VCTS OVC070CB 
     FM270400 00000KT 4SM BR BKN050
       
KCSG 261322Z 2613/2712 VRB03KT P6SM SCT005 BKN010 
     TEMPO 2613/2614 OVC005 
     FM261500 VRB03KT P6SM SCT015 BKN020 
     FM261800 18006KT P6SM VCSH SCT025 SCT040 BKN120 
     TEMPO 2618/2622 VRB15G25KT 3SM TSRA BKN025CB 
     FM270300 VRB03KT P6SM SCT040 BKN200 
     FM271000 09005KT P6SM SCT005 BKN040 OVC180
       
KCSM 261120Z 2612/2712 17004KT P6SM SKC 
     FM261900 12010KT P6SM SKC
       
KCSV 261216Z 2612/2712 19003KT P6SM SCT027 BKN090 
     FM261700 20006KT P6SM VCTS BKN040CB BKN110 BKN200 
     FM270400 23004KT P6SM VCSH BKN040 BKN100 BKN200
       
KCTB 261137Z 2612/2712 24010KT P6SM BKN120 
     FM262100 32009KT P6SM SCT050 BKN100 
     PROB30 2623/2705 VRB15G25KT -TSRA BKN040CB 
     FM270600 27008KT P6SM SCT050 BKN120
       
KCUB 261129Z 2612/2712 VRB03KT P6SM BKN006 OVC012 
     FM261430 19004KT P6SM BKN020 
     FM261700 18008KT P6SM VCSH SCT035 
     TEMPO 2618/2622 SHRA 
     FM270800 VRB03KT 3SM BR OVC006
       
KCVG 261120Z 2612/2718 20004KT P6SM SCT050 BKN100 
     FM261700 21010KT P6SM VCTS BKN035CB OVC090 
     TEMPO 2618/2622 3SM -TSRA BKN025CB 
     FM262300 24007KT P6SM VCTS BKN035CB 
     FM270100 VRB03KT P6SM SCT050 BKN200 
     FM271500 32004KT P6SM SCT040
       
TAF KCVS 261000Z 2610/2716 VRB06KT 9999 SKC QNH2995INS 
     BECMG 2614/2615 23009KT 9999 SKC QNH2998INS 
     BECMG 2620/2621 20012KT 9999 SKC QNH2989INS 
     BECMG 2702/2703 14009KT 9999 FEW250 QNH2989INS 
     BECMG 2714/2715 20012KT 9999 FEW200 QNH2991INS TX36/2621Z TN12/2612Z
       
KCWA 261122Z 2612/2712 VRB03KT P6SM FEW100 SCT200 
     FM261400 26004KT P6SM SKC 
     FM261800 24006KT P6SM VCTS SCT060CB 
     FM262300 25006KT P6SM SCT070 SCT250 
     FM270300 VRB03KT P6SM FEW250 
     TEMPO 2708/2712 4SM BR
       
KCXO 261303Z 2613/2712 23005KT P6SM BKN008 BKN015 
     FM261430 22006KT P6SM FEW025 SCT120 
     FM262100 VRB04KT P6SM FEW250
       
KCXP 261120Z 2612/2712 VRB05KT P6SM SCT045 OVC060 
     FM261600 29009KT P6SM -SHRA SCT035 OVC050 
     FM262200 30008G16KT P6SM VCSH BKN060 BKN090 
     FM270100 31007KT P6SM SCT060 BKN110 
     FM270600 VRB03KT P6SM SCT070 SCT140
       
KCYS 261120Z 2612/2712 24009KT P6SM SKC 
     FM262000 15012G20KT P6SM BKN150 
     FM270100 11010KT P6SM BKN150 
     FM270700 27012KT P6SM SCT150